createdAt,value
2023-05-01T00:28:07.978Z,4.20
2023-05-01T00:30:35.996Z,4.57
2023-05-01T00:33:03.358Z,4.37
2023-05-01T00:35:30.657Z,4.07
2023-05-01T00:37:57.903Z,4.60
2023-05-01T00:40:25.213Z,6.03
2023-05-01T00:43:11.352Z,2.67
2023-05-01T01:51:34.482Z,4.13
2023-05-01T01:54:04.967Z,4.57
2023-05-01T01:56:34.119Z,5.33
2023-05-01T01:59:01.972Z,3.70
2023-05-01T02:01:30.118Z,3.57
2023-05-01T02:03:57.778Z,5.13
2023-05-01T02:06:32.058Z,3.77
2023-05-01T02:09:00.051Z,3.10
2023-05-01T02:11:30.660Z,4.60
2023-05-01T02:13:58.433Z,3.73
2023-05-01T02:16:53.666Z,3.77
2023-05-01T02:19:47.407Z,5.17
2023-05-01T02:22:16.080Z,5.43
2023-05-01T02:24:44.511Z,3.83
2023-05-01T02:27:16.229Z,5.80
2023-05-01T02:29:43.531Z,5.37
2023-05-01T02:32:10.735Z,5.70
2023-05-01T02:34:38.469Z,4.83
2023-05-01T02:37:07.033Z,2.73
2023-05-01T02:39:35.432Z,5.17
2023-05-01T02:42:03.628Z,5.13
2023-05-01T02:44:35.726Z,3.37
2023-05-01T02:47:21.950Z,4.17
2023-05-01T02:55:20.629Z,4.87
2023-05-01T02:57:47.846Z,9.03
2023-05-01T03:00:16.408Z,6.20
2023-05-01T03:02:43.708Z,3.63
2023-05-01T03:05:10.992Z,5.17
2023-05-01T03:07:38.297Z,4.60
2023-05-01T03:10:06.725Z,3.90
2023-05-01T03:12:34.585Z,4.67
2023-05-01T03:15:02.228Z,4.03
2023-05-01T03:17:32.197Z,4.07
2023-05-01T03:20:09.799Z,4.43
2023-05-01T03:23:02.151Z,3.83
2023-05-01T03:25:30.435Z,5.13
2023-05-01T03:27:59.938Z,4.37
2023-05-01T03:30:27.623Z,6.33
2023-05-01T03:32:57.062Z,6.33
2023-05-01T03:35:30.219Z,4.10
2023-05-01T03:37:58.141Z,5.77
2023-05-01T03:40:44.104Z,4.43
2023-05-01T03:43:32.056Z,5.27
2023-05-01T03:46:01.944Z,5.47
2023-05-01T03:48:31.323Z,3.90
2023-05-01T03:54:45.561Z,4.17
2023-05-01T03:57:22.595Z,3.90
2023-05-01T03:59:50.876Z,4.97
2023-05-01T04:02:19.801Z,4.77
2023-05-01T04:04:48.522Z,5.07
2023-05-01T04:07:15.896Z,6.27
2023-05-01T04:09:44.893Z,4.00
2023-05-01T04:12:12.363Z,4.07
2023-05-01T04:14:39.600Z,5.03
2023-05-01T04:17:07.044Z,6.47
2023-05-01T04:19:39.506Z,6.03
2023-05-01T04:22:08.161Z,7.07
2023-05-01T04:24:57.556Z,5.33
2023-05-01T04:27:50.121Z,4.57
2023-05-01T04:30:23.998Z,5.97
2023-05-01T04:32:51.404Z,3.50
2023-05-01T04:35:18.871Z,7.43
2023-05-01T04:37:47.682Z,5.53
2023-05-01T04:40:15.048Z,7.50
2023-05-01T04:42:43.206Z,4.73
2023-05-01T04:45:13.580Z,4.90
2023-05-01T04:47:41.185Z,5.43
2023-05-01T04:50:08.877Z,5.53
2023-05-01T04:52:36.110Z,5.87
2023-05-01T04:58:07.274Z,5.70
2023-05-01T05:00:36.240Z,9.43
2023-05-01T05:03:05.883Z,6.73
2023-05-01T05:05:33.225Z,8.30
2023-05-01T05:08:00.981Z,5.07
2023-05-01T05:10:48.427Z,4.43
2023-05-01T05:16:18.977Z,4.77
2023-05-01T05:18:46.674Z,4.73
2023-05-01T05:21:14.020Z,5.83
2023-05-01T05:23:47.299Z,6.80
2023-05-01T05:26:14.624Z,3.93
2023-05-01T05:28:51.675Z,4.73
2023-05-01T05:31:21.025Z,5.03
2023-05-01T05:33:48.405Z,5.40
2023-05-01T05:36:17.121Z,5.50
2023-05-01T05:38:45.248Z,5.53
2023-05-01T05:41:31.020Z,7.83
2023-05-01T06:32:26.847Z,6.40
2023-05-01T06:34:55.205Z,8.47
2023-05-01T06:37:22.488Z,7.03
2023-05-01T06:39:49.767Z,7.03
2023-05-01T06:42:17.000Z,5.30
2023-05-01T07:24:47.461Z,8.37
2023-05-01T07:27:16.186Z,6.60
2023-05-01T07:29:43.466Z,9.43
2023-05-01T07:32:10.782Z,10.27
2023-05-01T07:34:38.186Z,8.10
2023-05-01T07:37:05.498Z,7.60
2023-05-01T07:39:32.670Z,6.93
2023-05-01T07:41:59.927Z,10.50
2023-05-01T07:44:28.529Z,7.93
2023-05-01T07:46:55.729Z,5.80
2023-05-01T07:49:44.496Z,8.43
2023-05-01T09:18:10.059Z,13.27
2023-05-01T09:20:38.069Z,7.73
2023-05-01T09:46:18.032Z,10.07
2023-05-01T09:48:53.513Z,9.90
2023-05-01T09:51:21.978Z,12.63
2023-05-01T11:01:46.325Z,9.60
2023-05-01T11:04:28.485Z,10.10
2023-05-01T11:44:16.254Z,8.87
2023-05-01T11:46:43.458Z,7.20
2023-05-01T11:49:11.712Z,9.53
2023-05-01T11:51:39.030Z,8.57
2023-05-01T11:54:06.985Z,7.93
2023-05-01T11:56:56.732Z,7.77
2023-05-01T12:03:04.804Z,7.03
2023-05-01T12:05:32.435Z,6.37
2023-05-01T12:08:19.462Z,7.50
2023-05-01T14:12:13.038Z,8.00
2023-05-01T14:14:45.041Z,7.47
2023-05-01T14:17:12.558Z,8.03
2023-05-01T14:19:40.180Z,11.10
2023-05-01T14:22:08.116Z,8.37
2023-05-01T14:24:50.709Z,7.70
2023-05-01T14:27:20.278Z,9.90
2023-05-01T14:29:47.474Z,9.80
2023-05-01T14:32:16.001Z,9.43
2023-05-01T14:34:55.979Z,8.90
2023-05-01T14:40:58.942Z,9.00
2023-05-01T14:43:28.209Z,21.23
2023-05-01T14:45:56.115Z,14.63
2023-05-01T14:48:24.630Z,14.03
2023-05-01T14:50:52.570Z,12.37
2023-05-01T14:53:19.818Z,13.00
2023-05-01T14:55:48.365Z,13.53
2023-05-01T14:58:15.624Z,16.13
2023-05-01T15:00:44.235Z,11.70
2023-05-01T15:03:11.549Z,15.27
2023-05-01T15:05:51.086Z,11.20
2023-05-01T16:37:44.838Z,21.07
2023-05-01T16:40:16.915Z,17.60
2023-05-01T16:42:44.363Z,21.40
2023-05-01T16:45:11.847Z,22.83
2023-05-01T16:47:39.460Z,26.40
2023-05-01T16:50:08.942Z,24.10
2023-05-01T16:52:36.214Z,23.00
2023-05-01T16:58:52.005Z,18.47
2023-05-01T17:01:19.338Z,23.43
2023-05-01T17:03:46.586Z,25.07
2023-05-01T17:06:13.980Z,22.33
2023-05-01T17:08:41.221Z,24.90
2023-05-01T17:11:09.840Z,23.97
2023-05-01T17:13:37.138Z,24.70
2023-05-01T17:16:04.596Z,24.10
2023-05-01T17:18:31.800Z,24.73
2023-05-01T17:20:59.063Z,26.37
2023-05-01T17:23:26.304Z,32.63
2023-05-01T17:25:53.587Z,28.40
2023-05-01T17:28:22.121Z,26.07
2023-05-01T17:30:49.376Z,23.53
2023-05-01T17:33:16.857Z,22.53
2023-05-01T17:35:44.546Z,25.23
2023-05-01T17:38:11.732Z,25.47
2023-05-01T17:40:38.976Z,22.53
2023-05-01T17:43:06.209Z,21.73
2023-05-01T17:45:34.889Z,22.17
2023-05-01T17:48:02.328Z,23.53
2023-05-01T17:50:29.647Z,24.47
2023-05-01T17:52:56.888Z,22.87
2023-05-01T17:55:24.254Z,26.00
2023-05-01T17:57:51.563Z,24.57
2023-05-01T18:00:22.310Z,23.13
2023-05-01T18:02:51.083Z,24.37
2023-05-01T18:05:18.591Z,23.40
2023-05-01T18:07:45.801Z,26.70
2023-05-01T18:16:36.949Z,23.10
2023-05-01T18:45:13.537Z,28.53
2023-05-01T18:47:40.831Z,29.93
2023-05-01T18:50:08.851Z,31.03
2023-05-01T18:52:36.130Z,30.80
2023-05-01T18:55:03.406Z,32.53
2023-05-01T19:37:18.574Z,21.87
2023-05-01T19:43:20.859Z,27.27
2023-05-01T19:45:48.562Z,24.50
2023-05-01T19:48:15.887Z,27.90
2023-05-01T19:50:43.198Z,27.43
2023-05-01T19:53:11.741Z,26.50
2023-05-01T19:55:38.943Z,23.03
2023-05-01T19:58:06.272Z,26.47
2023-05-01T20:00:33.790Z,21.23
2023-05-01T20:03:10.194Z,23.50
2023-05-01T20:20:07.085Z,23.93
2023-05-01T20:22:35.911Z,19.47
2023-05-01T20:25:03.151Z,25.20
2023-05-01T20:27:45.872Z,20.37
2023-05-01T20:30:13.192Z,25.20
2023-05-01T20:32:40.599Z,21.60
2023-05-01T20:35:08.096Z,26.80
2023-05-01T20:38:06.439Z,23.93
2023-05-01T21:13:00.388Z,16.20
2023-05-01T21:15:27.695Z,11.60
2023-05-01T21:17:55.115Z,12.80
2023-05-01T21:20:29.891Z,12.93
2023-05-01T21:22:57.154Z,14.37
2023-05-01T21:25:24.652Z,12.70
2023-05-01T21:27:51.857Z,16.15
2023-05-01T21:30:27.554Z,13.43
2023-05-01T21:32:54.978Z,12.07
2023-05-01T21:35:22.321Z,13.57
2023-05-01T21:37:49.699Z,13.03
2023-05-01T21:40:17.133Z,17.47
2023-05-01T21:42:50.347Z,13.80
2023-05-01T21:45:18.104Z,15.53
2023-05-01T21:47:47.561Z,13.70
2023-05-01T21:50:15.592Z,17.17
2023-05-01T21:53:01.614Z,14.63
2023-05-01T23:01:51.764Z,7.90
2023-05-01T23:04:19.125Z,10.63
2023-05-01T23:06:46.638Z,9.00
2023-05-01T23:09:14.014Z,9.47
2023-05-01T23:49:34.265Z,13.83
2023-05-01T23:52:01.753Z,10.57
2023-05-01T23:54:44.463Z,11.30
2023-05-01T23:57:11.782Z,12.67
2023-05-01T23:59:38.972Z,13.57
